createdAt,value
2018-06-27T00:01:14.103Z,3.17
2018-06-27T00:03:42.448Z,2.90
2018-06-27T00:06:10.761Z,2.57
2018-06-27T00:08:39.243Z,3.00
2018-06-27T00:11:07.591Z,2.83
2018-06-27T00:13:35.945Z,3.03
2018-06-27T00:16:04.349Z,3.30
2018-06-27T00:18:32.748Z,2.80
2018-06-27T00:21:01.086Z,2.70
2018-06-27T00:23:29.421Z,2.63
2018-06-27T00:25:57.774Z,3.10
2018-06-27T00:28:26.129Z,2.73
2018-06-27T00:30:54.453Z,2.53
2018-06-27T00:33:22.818Z,2.50
2018-06-27T00:35:51.212Z,2.80
2018-06-27T00:38:19.582Z,2.90
2018-06-27T00:40:47.939Z,3.17
2018-06-27T00:43:17.138Z,2.60
2018-06-27T00:45:45.473Z,2.80
2018-06-27T00:48:13.858Z,2.80
2018-06-27T00:50:42.168Z,2.73
2018-06-27T00:53:10.543Z,2.97
2018-06-27T00:55:38.884Z,2.80
2018-06-27T00:58:07.340Z,3.03
2018-06-27T01:00:35.759Z,2.73
2018-06-27T01:03:04.114Z,3.20
2018-06-27T01:05:32.515Z,2.90
2018-06-27T01:08:00.920Z,3.07
2018-06-27T01:10:29.424Z,3.00
2018-06-27T01:12:57.787Z,2.77
2018-06-27T01:15:26.144Z,3.20
2018-06-27T01:17:56.083Z,3.00
2018-06-27T01:20:24.468Z,2.70
2018-06-27T01:22:52.837Z,3.00
2018-06-27T01:25:21.632Z,3.20
2018-06-27T01:27:49.976Z,3.30
2018-06-27T01:30:18.343Z,2.90
2018-06-27T01:32:46.694Z,3.30
2018-06-27T01:35:15.365Z,3.10
2018-06-27T01:37:43.864Z,3.30
2018-06-27T01:40:12.245Z,3.00
2018-06-27T01:42:40.618Z,3.20
2018-06-27T01:45:08.973Z,3.00
2018-06-27T01:47:37.330Z,3.43
2018-06-27T01:50:05.727Z,3.60
2018-06-27T01:52:34.176Z,3.43
2018-06-27T01:55:02.520Z,3.67
2018-06-27T01:57:30.891Z,3.57
2018-06-27T01:59:59.247Z,3.50
2018-06-27T02:02:27.624Z,3.03
2018-06-27T02:04:55.999Z,3.03
2018-06-27T02:07:24.349Z,3.27
2018-06-27T02:09:52.730Z,3.53
2018-06-27T02:12:21.068Z,3.60
2018-06-27T02:14:49.483Z,3.13
2018-06-27T02:17:17.828Z,3.17
2018-06-27T02:19:46.189Z,3.43
2018-06-27T02:22:14.577Z,3.30
2018-06-27T02:24:42.933Z,3.07
2018-06-27T02:27:11.281Z,2.97
2018-06-27T02:29:39.611Z,3.37
2018-06-27T02:32:07.993Z,3.00
2018-06-27T02:34:36.350Z,3.23
2018-06-27T02:37:04.692Z,2.87
2018-06-27T02:39:33.041Z,3.23
2018-06-27T02:42:01.451Z,3.20
2018-06-27T02:44:29.792Z,3.07
2018-06-27T02:46:58.138Z,3.10
2018-06-27T02:49:26.469Z,3.00
2018-06-27T02:51:54.795Z,3.40
2018-06-27T02:54:23.142Z,2.97
2018-06-27T02:56:51.488Z,3.27
2018-06-27T02:59:19.841Z,3.00
2018-06-27T03:01:48.181Z,2.80
2018-06-27T03:04:16.556Z,2.70
2018-06-27T03:06:44.900Z,3.00
2018-06-27T03:09:13.243Z,3.17
2018-06-27T03:11:41.679Z,2.90
2018-06-27T03:14:10.041Z,2.83
2018-06-27T03:16:38.381Z,3.10
2018-06-27T03:19:06.692Z,2.77
2018-06-27T03:21:35.064Z,3.20
2018-06-27T03:24:03.368Z,3.00
2018-06-27T03:26:31.693Z,3.10
2018-06-27T03:29:00.010Z,2.97
2018-06-27T03:31:28.389Z,3.27
2018-06-27T03:33:56.727Z,3.20
2018-06-27T03:36:25.041Z,3.23
2018-06-27T03:38:53.369Z,2.87
2018-06-27T03:41:21.698Z,3.17
2018-06-27T03:43:50.041Z,3.40
2018-06-27T03:46:18.367Z,3.13
2018-06-27T03:48:46.696Z,3.40
2018-06-27T03:51:15.005Z,2.83
2018-06-27T03:53:47.488Z,3.23
2018-06-27T03:56:15.822Z,3.20
2018-06-27T03:58:44.137Z,3.20
2018-06-27T04:01:12.460Z,2.93
2018-06-27T04:03:41.712Z,3.70
2018-06-27T04:07:34.498Z,3.43
2018-06-27T04:10:03.055Z,2.93
2018-06-27T04:12:31.568Z,3.40
2018-06-27T04:14:59.892Z,3.33
2018-06-27T04:17:29.385Z,3.03
2018-06-27T04:19:57.736Z,3.63
2018-06-27T04:22:31.498Z,3.20
2018-06-27T04:25:00.087Z,2.90
2018-06-27T04:27:29.185Z,2.93
2018-06-27T04:29:57.568Z,3.23
2018-06-27T04:32:26.755Z,3.13
2018-06-27T04:34:55.449Z,3.27
2018-06-27T04:37:23.867Z,3.17
2018-06-27T04:39:52.214Z,2.90
2018-06-27T04:42:20.583Z,2.87
2018-06-27T04:44:48.942Z,2.90
2018-06-27T04:47:17.284Z,3.30
2018-06-27T04:49:45.698Z,3.40
2018-06-27T04:52:14.863Z,2.97
2018-06-27T04:54:43.342Z,2.87
2018-06-27T04:57:11.687Z,3.20
2018-06-27T04:59:40.060Z,2.90
2018-06-27T05:02:08.413Z,2.90
2018-06-27T05:04:36.756Z,3.23
2018-06-27T05:07:05.100Z,3.70
2018-06-27T05:09:33.451Z,2.77
2018-06-27T05:12:01.797Z,2.97
2018-06-27T05:14:30.174Z,2.83
2018-06-27T05:16:58.583Z,2.60
2018-06-27T05:19:26.929Z,2.77
2018-06-27T05:21:55.271Z,2.90
2018-06-27T05:24:23.651Z,2.57
2018-06-27T05:26:52.021Z,2.77
2018-06-27T05:29:20.377Z,3.00
2018-06-27T05:31:48.757Z,2.80
2018-06-27T05:34:17.135Z,2.60
2018-06-27T05:36:45.513Z,2.47
2018-06-27T05:39:13.860Z,2.50
2018-06-27T05:41:42.227Z,2.60
2018-06-27T05:44:10.585Z,2.60
2018-06-27T05:46:39.032Z,2.80
2018-06-27T05:49:07.480Z,2.60
2018-06-27T05:51:35.879Z,2.90
2018-06-27T05:54:04.237Z,2.77
2018-06-27T05:56:32.603Z,2.40
2018-06-27T05:59:00.927Z,3.00
2018-06-27T06:01:29.270Z,2.60
2018-06-27T06:03:57.717Z,2.40
2018-06-27T06:06:26.092Z,3.10
2018-06-27T06:08:54.443Z,2.77
2018-06-27T06:11:23.523Z,3.17
2018-06-27T06:13:51.889Z,2.80
2018-06-27T06:16:20.292Z,2.40
2018-06-27T06:18:48.643Z,2.63
2018-06-27T06:21:17.025Z,2.53
2018-06-27T06:23:45.358Z,2.20
2018-06-27T06:26:13.718Z,2.13
2018-06-27T06:28:42.048Z,2.33
2018-06-27T06:31:10.397Z,2.53
2018-06-27T06:33:38.859Z,2.00
2018-06-27T06:36:07.225Z,2.13
2018-06-27T06:38:35.562Z,2.30
2018-06-27T06:41:03.985Z,2.27
2018-06-27T06:43:32.342Z,2.53
2018-06-27T06:46:00.726Z,1.80
2018-06-27T06:48:30.284Z,2.13
2018-06-27T06:50:58.834Z,1.73
2018-06-27T06:53:27.175Z,1.90
2018-06-27T06:55:55.617Z,1.90
2018-06-27T06:58:23.943Z,1.70
2018-06-27T07:00:52.281Z,1.83
2018-06-27T07:03:20.652Z,1.90
2018-06-27T07:05:49.730Z,1.87
2018-06-27T07:08:18.058Z,1.60
2018-06-27T07:10:46.518Z,1.40
2018-06-27T07:13:14.870Z,1.40
2018-06-27T07:15:43.208Z,1.40
2018-06-27T07:18:11.575Z,1.30
2018-06-27T07:20:39.958Z,1.37
2018-06-27T07:23:08.308Z,1.45
2018-06-27T07:25:36.678Z,1.52
2018-06-27T07:28:05.022Z,1.40
2018-06-27T07:30:33.370Z,1.30
2018-06-27T07:33:01.741Z,1.40
2018-06-27T07:35:30.091Z,1.27
2018-06-27T07:37:58.420Z,1.20
2018-06-27T07:40:26.749Z,1.40
2018-06-27T07:42:55.150Z,1.15
2018-06-27T07:45:23.512Z,1.40
2018-06-27T07:47:51.888Z,1.12
2018-06-27T07:50:20.305Z,1.47
2018-06-27T07:52:48.666Z,1.30
2018-06-27T07:55:17.125Z,1.30
2018-06-27T07:57:45.444Z,1.30
2018-06-27T08:00:13.787Z,1.30
2018-06-27T08:02:42.107Z,1.40
2018-06-27T08:05:10.455Z,1.20
2018-06-27T08:07:38.905Z,1.50
2018-06-27T08:10:07.247Z,1.47
2018-06-27T08:12:35.941Z,1.60
2018-06-27T08:15:04.378Z,1.22
2018-06-27T08:17:32.743Z,1.20
2018-06-27T08:20:01.124Z,1.15
2018-06-27T08:22:29.465Z,1.12
2018-06-27T08:24:57.786Z,1.17
2018-06-27T08:27:26.138Z,1.25
2018-06-27T08:29:54.485Z,1.10
2018-06-27T08:32:22.836Z,1.00
2018-06-27T08:34:51.218Z,1.10
2018-06-27T08:37:19.567Z,1.00
2018-06-27T08:39:47.898Z,0.90
2018-06-27T08:42:16.292Z,1.20
2018-06-27T08:44:44.625Z,0.80
2018-06-27T08:47:13.009Z,0.98
2018-06-27T08:49:41.396Z,0.90
2018-06-27T08:52:09.767Z,0.90
2018-06-27T08:54:43.442Z,1.00
2018-06-27T08:57:11.836Z,0.90
2018-06-27T08:59:40.188Z,0.88
2018-06-27T09:02:08.523Z,1.00
2018-06-27T09:04:36.865Z,1.10
2018-06-27T09:07:05.633Z,1.00
2018-06-27T09:09:33.984Z,0.90
2018-06-27T09:12:02.356Z,0.93
2018-06-27T09:14:30.708Z,0.82
2018-06-27T09:16:59.117Z,0.95
2018-06-27T09:19:27.464Z,1.10
2018-06-27T09:21:55.843Z,1.25
2018-06-27T09:24:24.186Z,1.00
2018-06-27T09:26:52.670Z,1.00
2018-06-27T09:29:21.031Z,1.15
2018-06-27T09:31:49.352Z,1.12
2018-06-27T09:34:17.668Z,1.30
2018-06-27T09:36:46.039Z,1.00
2018-06-27T09:39:14.413Z,1.22
2018-06-27T09:41:42.747Z,1.07
2018-06-27T09:44:11.069Z,1.20
2018-06-27T09:46:39.448Z,1.00
2018-06-27T09:49:07.824Z,1.00
2018-06-27T09:51:36.191Z,1.23
2018-06-27T09:54:04.587Z,1.10
2018-06-27T09:56:32.950Z,1.13
2018-06-27T09:59:01.303Z,1.10
2018-06-27T10:01:29.689Z,1.20
2018-06-27T10:03:58.068Z,1.40
2018-06-27T10:06:26.444Z,1.23
2018-06-27T10:08:54.814Z,1.10
2018-06-27T10:11:23.195Z,1.00
2018-06-27T10:13:51.581Z,1.20
2018-06-27T10:16:19.957Z,1.30
2018-06-27T10:18:48.307Z,1.03
2018-06-27T10:21:16.688Z,1.20
2018-06-27T10:23:45.066Z,1.20
2018-06-27T10:26:13.393Z,1.20
2018-06-27T10:28:41.743Z,1.20
2018-06-27T10:31:10.096Z,1.13
2018-06-27T10:33:38.495Z,1.13
2018-06-27T10:36:06.857Z,1.13
2018-06-27T10:38:35.187Z,1.20
2018-06-27T10:41:03.531Z,1.17
2018-06-27T10:43:31.851Z,1.20
2018-06-27T10:46:00.238Z,1.10
2018-06-27T10:48:28.599Z,1.20
2018-06-27T10:50:56.976Z,1.23
2018-06-27T10:53:25.354Z,1.20
2018-06-27T10:55:53.711Z,1.33
2018-06-27T10:58:22.059Z,1.33
2018-06-27T11:00:50.397Z,1.40
2018-06-27T11:03:18.765Z,1.27
2018-06-27T11:05:47.133Z,1.40
2018-06-27T11:08:15.468Z,1.53
2018-06-27T11:10:43.836Z,1.33
2018-06-27T11:13:12.196Z,1.67
2018-06-27T11:15:40.562Z,1.50
2018-06-27T11:18:08.916Z,1.50
2018-06-27T11:20:37.235Z,1.33
2018-06-27T11:23:05.776Z,1.40
2018-06-27T11:25:34.128Z,1.50
2018-06-27T11:28:02.471Z,1.60
2018-06-27T11:30:30.813Z,1.53
2018-06-27T11:32:59.190Z,1.63
2018-06-27T11:35:27.542Z,1.50
2018-06-27T11:37:55.885Z,1.60
2018-06-27T11:40:24.298Z,1.60
2018-06-27T11:42:52.679Z,1.80
2018-06-27T11:45:21.007Z,1.57
2018-06-27T11:47:49.364Z,1.83
2018-06-27T11:50:17.738Z,1.77
2018-06-27T11:52:46.232Z,1.70
2018-06-27T11:55:14.603Z,1.50
2018-06-27T11:57:44.347Z,1.67
2018-06-27T12:00:12.846Z,1.50
2018-06-27T12:02:41.214Z,1.80
2018-06-27T12:05:10.544Z,1.70
2018-06-27T12:07:38.940Z,1.50
2018-06-27T12:10:07.307Z,1.40
2018-06-27T12:12:35.688Z,1.50
2018-06-27T12:15:04.125Z,1.67
2018-06-27T12:17:32.486Z,1.60
2018-06-27T12:20:00.863Z,1.50
2018-06-27T12:22:29.232Z,1.63
2018-06-27T12:24:57.565Z,1.70
2018-06-27T12:27:25.930Z,1.50
2018-06-27T12:29:54.304Z,1.23
2018-06-27T12:32:22.708Z,1.53
2018-06-27T12:34:51.055Z,1.40
2018-06-27T12:37:19.381Z,1.33
2018-06-27T12:39:47.722Z,1.50
2018-06-27T12:42:16.063Z,1.63
2018-06-27T12:44:44.383Z,1.50
2018-06-27T12:47:12.751Z,1.70
2018-06-27T12:49:41.131Z,1.50
2018-06-27T12:52:09.480Z,1.67
2018-06-27T12:54:37.808Z,1.50
2018-06-27T12:57:06.174Z,1.50
2018-06-27T12:59:34.510Z,1.50
2018-06-27T13:02:02.884Z,1.50
2018-06-27T13:04:31.251Z,1.37
2018-06-27T13:06:59.598Z,1.63
2018-06-27T13:09:27.963Z,1.50
2018-06-27T13:11:56.303Z,1.40
2018-06-27T13:14:24.683Z,1.50
2018-06-27T13:16:53.073Z,1.50
2018-06-27T13:19:21.408Z,1.80
2018-06-27T13:21:49.790Z,1.63
2018-06-27T13:24:18.119Z,1.50
2018-06-27T13:26:46.444Z,1.53
2018-06-27T13:29:14.770Z,1.13
2018-06-27T13:31:43.133Z,1.40
2018-06-27T13:34:11.450Z,1.60
2018-06-27T13:36:39.824Z,1.47
2018-06-27T13:39:09.316Z,1.30
2018-06-27T13:41:37.697Z,1.50
2018-06-27T13:44:06.753Z,1.87
2018-06-27T13:46:35.119Z,1.77
2018-06-27T13:49:03.464Z,1.80
2018-06-27T13:51:31.801Z,1.30
2018-06-27T13:54:00.146Z,1.30
2018-06-27T13:56:28.471Z,1.60
2018-06-27T13:58:56.906Z,2.90
2018-06-27T14:01:25.251Z,1.80
2018-06-27T14:03:53.706Z,1.50
2018-06-27T14:06:22.097Z,1.40
2018-06-27T14:08:50.497Z,1.47
2018-06-27T14:11:18.866Z,1.63
2018-06-27T14:13:47.218Z,1.60
2018-06-27T14:16:15.568Z,1.60
2018-06-27T14:18:44.001Z,1.43
2018-06-27T14:21:12.355Z,1.47
2018-06-27T14:23:40.734Z,1.77
2018-06-27T14:26:09.081Z,1.57
2018-06-27T14:28:37.451Z,1.47
2018-06-27T14:31:05.872Z,1.60
2018-06-27T14:33:34.252Z,1.30
2018-06-27T14:36:02.642Z,1.63
2018-06-27T14:38:31.047Z,1.40
2018-06-27T14:40:59.419Z,1.60
2018-06-27T14:43:27.809Z,1.70
2018-06-27T14:45:56.186Z,1.63
2018-06-27T14:48:24.530Z,1.80
2018-06-27T14:50:52.906Z,1.70
2018-06-27T14:53:21.368Z,1.53
2018-06-27T14:55:49.726Z,1.80
2018-06-27T14:58:18.146Z,1.73
2018-06-27T15:00:46.494Z,1.60
2018-06-27T15:03:14.862Z,1.70
2018-06-27T15:05:43.212Z,1.73
2018-06-27T15:08:11.588Z,1.77
2018-06-27T15:10:40.312Z,1.80
2018-06-27T15:13:08.660Z,1.50
2018-06-27T15:15:37.036Z,1.57
2018-06-27T15:18:05.541Z,1.50
2018-06-27T15:20:33.955Z,1.53
2018-06-27T15:23:02.248Z,1.80
2018-06-27T15:25:30.629Z,1.43
2018-06-27T15:27:58.968Z,1.60
2018-06-27T15:30:27.313Z,1.80
2018-06-27T15:32:55.691Z,1.57
2018-06-27T15:35:24.108Z,1.67
2018-06-27T15:37:52.419Z,1.87
2018-06-27T15:40:20.743Z,1.63
2018-06-27T15:42:49.160Z,1.83
2018-06-27T15:45:17.525Z,1.80
2018-06-27T15:47:45.964Z,1.67
2018-06-27T15:50:15.271Z,1.60
2018-06-27T15:52:43.744Z,1.50
2018-06-27T15:55:12.100Z,1.67
2018-06-27T15:57:40.468Z,1.40
2018-06-27T16:00:09.029Z,1.73
2018-06-27T16:02:37.397Z,1.70
2018-06-27T16:05:05.862Z,1.83
2018-06-27T16:07:34.266Z,1.90
2018-06-27T16:10:02.634Z,1.60
2018-06-27T16:12:31.043Z,1.70
2018-06-27T16:14:59.407Z,1.90
2018-06-27T16:17:27.992Z,1.60
2018-06-27T16:19:56.174Z,1.50
2018-06-27T16:22:24.544Z,1.90
2018-06-27T16:24:52.987Z,1.60
2018-06-27T16:27:21.338Z,1.80
2018-06-27T16:29:49.701Z,1.83
2018-06-27T16:32:18.052Z,1.77
2018-06-27T16:34:46.400Z,2.03
2018-06-27T16:37:14.819Z,1.83
2018-06-27T16:39:43.297Z,1.70
2018-06-27T16:42:11.610Z,1.80
2018-06-27T16:44:40.378Z,1.83
2018-06-27T16:47:08.735Z,1.83
2018-06-27T16:49:37.092Z,1.70
2018-06-27T16:52:05.657Z,1.60
2018-06-27T16:54:34.173Z,1.50
2018-06-27T16:57:02.659Z,1.90
2018-06-27T16:59:31.013Z,1.73
2018-06-27T17:01:59.422Z,1.60
2018-06-27T17:04:27.865Z,1.60
2018-06-27T17:06:56.372Z,2.00
2018-06-27T17:09:24.803Z,1.80
2018-06-27T17:11:53.342Z,1.63
2018-06-27T17:14:21.677Z,1.70
2018-06-27T17:16:50.080Z,1.87
2018-06-27T17:19:18.446Z,2.07
2018-06-27T17:21:46.810Z,1.67
2018-06-27T17:24:15.242Z,1.60
2018-06-27T17:26:43.588Z,1.73
2018-06-27T17:29:11.944Z,1.97
2018-06-27T17:31:40.367Z,1.60
2018-06-27T17:34:08.700Z,1.80
2018-06-27T17:36:37.105Z,1.53
2018-06-27T17:39:08.079Z,1.63
2018-06-27T17:41:36.837Z,1.70
2018-06-27T17:44:05.342Z,1.97
2018-06-27T17:46:33.840Z,2.00
2018-06-27T17:49:02.199Z,1.63
2018-06-27T17:51:30.564Z,1.90
2018-06-27T17:53:58.944Z,2.60
2018-06-27T17:56:27.291Z,2.30
2018-06-27T17:58:55.633Z,2.17
2018-06-27T18:01:24.016Z,1.90
2018-06-27T18:03:52.363Z,1.67
2018-06-27T18:06:20.773Z,1.73
2018-06-27T18:08:49.197Z,1.90
2018-06-27T18:11:17.499Z,1.80
2018-06-27T18:13:45.907Z,1.63
2018-06-27T18:16:14.307Z,2.17
2018-06-27T18:18:42.689Z,2.20
2018-06-27T18:21:11.184Z,1.70
2018-06-27T18:23:39.630Z,1.73
2018-06-27T18:26:08.061Z,1.80
2018-06-27T18:28:36.475Z,1.87
2018-06-27T18:31:04.831Z,2.00
2018-06-27T18:33:33.184Z,1.80
2018-06-27T18:36:01.568Z,1.90
2018-06-27T18:38:30.042Z,1.77
2018-06-27T18:40:58.476Z,1.97
2018-06-27T18:43:26.901Z,1.70
2018-06-27T18:45:55.374Z,1.80
2018-06-27T18:48:23.866Z,1.73
2018-06-27T18:50:52.296Z,1.67
2018-06-27T18:53:20.783Z,1.70
2018-06-27T18:55:49.448Z,1.63
2018-06-27T18:58:18.010Z,1.93
2018-06-27T19:00:46.448Z,2.20
2018-06-27T19:03:14.963Z,2.00
2018-06-27T19:05:43.358Z,2.30
2018-06-27T19:08:11.762Z,2.20
2018-06-27T19:10:40.167Z,2.10
2018-06-27T19:13:08.639Z,2.40
2018-06-27T19:15:37.020Z,2.40
2018-06-27T19:18:05.667Z,2.60
2018-06-27T19:20:34.075Z,2.30
2018-06-27T19:23:02.580Z,2.57
2018-06-27T19:25:30.989Z,2.80
2018-06-27T19:27:59.451Z,2.60
2018-06-27T19:30:27.920Z,2.30
2018-06-27T19:32:56.334Z,2.33
2018-06-27T19:35:24.657Z,2.30
2018-06-27T19:37:53.091Z,2.30
2018-06-27T19:40:21.435Z,2.37
2018-06-27T19:42:49.776Z,2.33
2018-06-27T19:45:18.101Z,2.17
2018-06-27T19:47:46.450Z,2.20
2018-06-27T19:50:14.808Z,2.47
2018-06-27T19:52:43.162Z,2.20
2018-06-27T19:55:11.650Z,1.97
2018-06-27T19:57:40.027Z,2.20
2018-06-27T20:00:08.387Z,2.03
2018-06-27T20:02:36.726Z,2.13
2018-06-27T20:05:05.134Z,2.30
2018-06-27T20:07:33.616Z,2.30
2018-06-27T20:10:01.971Z,2.30
2018-06-27T20:12:30.291Z,2.27
2018-06-27T20:14:58.729Z,2.50
2018-06-27T20:17:27.049Z,2.20
2018-06-27T20:19:55.387Z,2.40
2018-06-27T20:22:23.827Z,2.17
2018-06-27T20:24:52.131Z,2.10
2018-06-27T20:27:20.499Z,2.30
2018-06-27T20:29:48.875Z,2.20
2018-06-27T20:32:17.236Z,2.30
2018-06-27T20:34:45.575Z,2.10
2018-06-27T20:37:14.116Z,2.23
2018-06-27T20:39:42.471Z,2.40
2018-06-27T20:42:13.424Z,2.40
2018-06-27T20:44:41.797Z,2.60
2018-06-27T20:47:10.178Z,2.60
2018-06-27T20:49:38.557Z,2.43
2018-06-27T20:52:06.930Z,2.50
2018-06-27T20:54:35.311Z,2.33
2018-06-27T20:57:03.686Z,2.53
2018-06-27T20:59:32.063Z,2.47
2018-06-27T21:02:00.397Z,2.80
2018-06-27T21:04:28.760Z,2.83
2018-06-27T21:06:57.134Z,2.70
2018-06-27T21:09:25.513Z,2.60
2018-06-27T21:11:53.840Z,2.60
2018-06-27T21:14:22.197Z,2.75
2018-06-27T21:16:50.588Z,2.40
2018-06-27T21:19:18.931Z,2.70
2018-06-27T21:21:47.311Z,2.70
2018-06-27T21:24:15.676Z,2.40
2018-06-27T21:26:44.030Z,2.30
2018-06-27T21:29:12.376Z,2.67
2018-06-27T21:31:40.736Z,2.60
2018-06-27T21:34:09.129Z,2.43
2018-06-27T21:36:37.531Z,2.80
2018-06-27T21:39:08.087Z,2.97
2018-06-27T21:41:36.424Z,2.40
2018-06-27T21:44:04.880Z,2.67
2018-06-27T21:46:33.319Z,2.80
2018-06-27T21:49:01.665Z,2.30
2018-06-27T21:51:30.048Z,2.47
2018-06-27T21:53:58.389Z,2.70
2018-06-27T21:56:26.738Z,2.50
2018-06-27T21:58:55.125Z,2.50
2018-06-27T22:01:23.488Z,2.30
2018-06-27T22:03:51.891Z,2.50
2018-06-27T22:06:20.217Z,2.50
2018-06-27T22:08:48.558Z,2.70
2018-06-27T22:11:16.870Z,2.60
2018-06-27T22:13:45.212Z,2.63
2018-06-27T22:16:13.641Z,2.53
2018-06-27T22:18:41.995Z,2.70
2018-06-27T22:21:10.538Z,2.20
2018-06-27T22:23:38.869Z,2.87
2018-06-27T22:26:07.266Z,2.77
2018-06-27T22:28:35.628Z,2.60
2018-06-27T22:31:03.977Z,2.70
2018-06-27T22:33:33.139Z,2.60
2018-06-27T22:36:01.600Z,2.80
2018-06-27T22:38:29.951Z,2.97
2018-06-27T22:40:58.306Z,2.90
2018-06-27T22:43:26.649Z,2.67
2018-06-27T22:45:55.504Z,2.87
2018-06-27T22:48:23.919Z,2.50
2018-06-27T22:50:52.240Z,3.10
2018-06-27T22:53:20.611Z,2.57
2018-06-27T22:55:48.944Z,3.00
2018-06-27T22:58:17.371Z,3.23
2018-06-27T23:00:45.720Z,2.67
2018-06-27T23:03:14.102Z,2.90
2018-06-27T23:05:42.461Z,2.77
2018-06-27T23:08:10.891Z,2.70
2018-06-27T23:10:39.290Z,2.83
2018-06-27T23:13:07.726Z,3.10
2018-06-27T23:15:36.128Z,2.90
2018-06-27T23:18:04.610Z,2.60
2018-06-27T23:20:32.939Z,2.90
2018-06-27T23:23:01.288Z,2.80
2018-06-27T23:25:29.618Z,3.00
2018-06-27T23:27:57.956Z,2.60
2018-06-27T23:30:26.295Z,3.10
2018-06-27T23:32:54.717Z,3.17
2018-06-27T23:35:23.080Z,2.80
2018-06-27T23:37:51.432Z,2.80
2018-06-27T23:40:19.786Z,3.00
2018-06-27T23:42:48.136Z,2.70
2018-06-27T23:45:17.610Z,2.50
2018-06-27T23:47:46.006Z,2.70
2018-06-27T23:50:14.799Z,3.07
2018-06-27T23:52:43.196Z,2.77
2018-06-27T23:55:11.549Z,2.87
2018-06-27T23:57:39.962Z,3.17
